Time;durP1;ratioP1;P1;durP2;ratioP2;P2;SDS_P1;SDS_P2;PMS_P1;PMS_P2;Temp;Humidity;BMP_temperature;BMP_pressure;BME280_temperature;BME280_humidity;BME280_pressure;Samples;Min_cycle;Max_cycle;Signal;HPM_P1;HPM_P2
2021/11/25 00:01:30;;;;;;;22.83;13.50;;;3.30;99.90;;;;;;4961373;28;20136;-70
2021/11/25 00:04:06;;;;;;;26.37;13.23;;;3.20;99.90;;;;;;4939793;28;20047;-70
2021/11/25 00:06:50;;;;;;;21.60;12.98;;;3.10;99.90;;;;;;4950133;28;20046;-73
2021/11/25 00:09:35;;;;;;;26.58;14.30;;;3.10;99.90;;;;;;4986198;28;20115;-71
2021/11/25 00:12:08;;;;;;;25.80;13.52;;;3.10;99.90;;;;;;4944447;28;20079;-71
2021/11/25 00:14:44;;;;;;;22.98;13.80;;;3.10;99.90;;;;;;4976129;28;20043;-71
2021/11/25 00:17:18;;;;;;;27.02;14.45;;;3.10;99.90;;;;;;4934982;28;20055;-71
2021/11/25 00:19:51;;;;;;;27.05;13.75;;;3.10;99.90;;;;;;4952566;28;20043;-70
2021/11/25 00:22:23;;;;;;;30.95;15.27;;;3.20;99.90;;;;;;4932168;28;20043;-70
2021/11/25 00:24:58;;;;;;;21.95;14.43;;;3.20;99.90;;;;;;4952071;28;20051;-69
2021/11/25 00:27:40;;;;;;;24.85;14.02;;;3.20;99.90;;;;;;4948604;28;20039;-71
2021/11/25 00:30:31;;;;;;;23.08;14.13;;;3.10;99.90;;;;;;4932017;28;20242;-69
2021/11/25 00:33:04;;;;;;;23.35;13.43;;;3.20;99.90;;;;;;4952870;28;20042;-71
2021/11/25 00:35:37;;;;;;;;;;;3.30;99.90;;;;;;4947106;28;20105;-70
2021/11/25 00:38:09;;;;;;;24.48;13.07;;;3.40;99.90;;;;;;4950088;28;19932;-71
2021/11/25 00:40:43;;;;;;;23.63;13.43;;;3.30;99.90;;;;;;4947332;28;20053;-70
2021/11/25 00:43:21;;;;;;;25.48;14.73;;;3.30;99.90;;;;;;4936667;28;20219;-71
2021/11/25 00:45:53;;;;;;;22.65;13.60;;;3.30;99.90;;;;;;4933470;28;20055;-72
2021/11/25 00:48:35;;;;;;;19.15;12.25;;;3.20;99.90;;;;;;4962082;28;20321;-71
2021/11/25 00:51:11;;;;;;;27.15;14.15;;;3.10;99.90;;;;;;4937244;28;20124;-72
2021/11/25 00:53:47;;;;;;;22.63;12.90;;;3.20;99.90;;;;;;4954579;28;20050;-72
2021/11/25 00:56:37;;;;;;;27.15;12.68;;;3.40;99.90;;;;;;4952854;28;20116;-71
2021/11/25 00:59:20;;;;;;;22.15;12.35;;;3.60;99.90;;;;;;4953504;28;20039;-72
2021/11/25 01:02:05;;;;;;;23.45;13.85;;;3.60;99.90;;;;;;4936659;28;20047;-72
2021/11/25 01:04:41;;;;;;;22.92;13.45;;;3.50;99.90;;;;;;4943441;28;20047;-71
2021/11/25 01:07:15;;;;;;;21.20;12.85;;;3.50;99.90;;;;;;4954199;28;20138;-71
2021/11/25 01:10:08;;;;;;;19.13;12.13;;;3.40;99.90;;;;;;4960419;28;20809;-70
2021/11/25 01:12:58;;;;;;;18.65;11.68;;;3.50;99.90;;;;;;4942323;28;20243;-70
2021/11/25 01:15:39;;;;;;;19.17;12.10;;;3.40;99.90;;;;;;4956170;28;20054;-72
2021/11/25 01:18:23;;;;;;;17.50;12.10;;;3.30;99.90;;;;;;4952344;28;20073;-72
2021/11/25 01:21:03;;;;;;;17.70;11.50;;;3.30;99.90;;;;;;4949859;28;20067;-72
2021/11/25 01:23:39;;;;;;;20.10;11.45;;;3.40;99.90;;;;;;4952576;28;20412;-72
2021/11/25 01:26:13;;;;;;;20.10;11.15;;;3.40;99.90;;;;;;4950570;28;20051;-72
2021/11/25 01:28:59;;;;;;;;;;;3.40;99.90;;;;;;4955174;28;20047;-70
2021/11/25 01:31:32;;;;;;;18.20;11.73;;;3.50;99.90;;;;;;4959692;28;19981;-70
2021/11/25 01:34:25;;;;;;;17.42;10.80;;;3.50;99.90;;;;;;4953226;28;20650;-70
2021/11/25 01:36:58;;;;;;;;;;;3.50;99.90;;;;;;4949550;28;20499;-70
2021/11/25 01:39:34;;;;;;;17.67;11.77;;;3.50;99.90;;;;;;4953109;28;19926;-70
2021/11/25 01:42:09;;;;;;;18.33;11.43;;;3.50;99.90;;;;;;4927084;28;20362;-69
2021/11/25 01:44:56;;;;;;;17.73;11.35;;;3.60;99.90;;;;;;4951114;28;20054;-70
2021/11/25 01:50:16;;;;;;;16.38;11.20;;;3.60;99.90;;;;;;4940410;28;20050;-69
2021/11/25 01:52:53;;;;;;;19.40;12.95;;;3.60;99.90;;;;;;4934839;28;20136;-69
2021/11/25 01:55:25;;;;;;;22.05;11.48;;;3.60;99.90;;;;;;4933086;28;20051;-70
2021/11/25 01:58:00;;;;;;;17.30;12.40;;;3.50;99.90;;;;;;4938106;28;20105;-70
2021/11/25 02:00:45;;;;;;;17.20;12.25;;;3.50;99.90;;;;;;4958873;28;20047;-69
2021/11/25 02:03:23;;;;;;;22.52;12.55;;;3.50;99.90;;;;;;4935067;28;20571;-70
2021/11/25 02:06:01;;;;;;;21.05;11.85;;;3.50;99.90;;;;;;4951094;28;20175;-71
2021/11/25 02:08:44;;;;;;;19.08;12.60;;;3.40;99.90;;;;;;4937773;28;20061;-71
2021/11/25 02:11:22;;;;;;;18.67;12.88;;;3.60;99.90;;;;;;4953689;28;20130;-70
2021/11/25 02:14:04;;;;;;;20.27;12.52;;;3.80;99.90;;;;;;4955765;28;20039;-71
2021/11/25 02:16:39;;;;;;;17.60;11.85;;;3.80;99.90;;;;;;4977228;28;20038;-70
2021/11/25 02:19:13;;;;;;;;;;;3.70;99.90;;;;;;4953206;28;20073;-71
2021/11/25 02:21:47;;;;;;;18.90;12.65;;;3.70;99.90;;;;;;4950662;28;19926;-71
2021/11/25 02:24:26;;;;;;;21.45;12.90;;;3.70;99.90;;;;;;4969295;28;20150;-71
2021/11/25 02:27:07;;;;;;;20.35;13.35;;;3.70;99.90;;;;;;4950028;28;20067;-71
2021/11/25 02:29:41;;;;;;;19.60;13.95;;;3.70;99.90;;;;;;4987593;28;20079;-71
2021/11/25 02:32:38;;;;;;;19.95;12.93;;;3.70;99.90;;;;;;4949623;28;20047;-70
2021/11/25 02:35:23;;;;;;;19.15;12.63;;;3.80;99.90;;;;;;4954346;28;20150;-70
2021/11/25 02:38:05;;;;;;;25.08;13.30;;;3.70;99.90;;;;;;4954212;28;20516;-71
2021/11/25 02:40:46;;;;;;;22.13;14.70;;;3.70;99.90;;;;;;4948052;28;20102;-71
2021/11/25 02:44:02;;;;;;;20.75;13.52;;;3.50;99.90;;;;;;4976105;28;20039;-70
2021/11/25 02:46:38;;;;;;;19.98;12.95;;;3.60;99.90;;;;;;4950794;28;20347;-71
2021/11/25 02:49:12;;;;;;;21.45;13.90;;;3.70;99.90;;;;;;4954378;28;20329;-71
2021/11/25 02:51:52;;;;;;;19.48;12.60;;;3.60;99.90;;;;;;4939238;28;20169;-71
2021/11/25 02:54:23;;;;;;;23.13;14.15;;;3.60;99.90;;;;;;4939607;28;20259;-71
2021/11/25 02:56:56;;;;;;;21.88;14.02;;;3.50;99.90;;;;;;4950190;28;20050;-71
2021/11/25 02:59:29;;;;;;;18.73;13.27;;;3.60;99.90;;;;;;4954402;28;20523;-72
2021/11/25 03:02:10;;;;;;;18.15;12.77;;;3.60;99.90;;;;;;4952148;28;20057;-71
2021/11/25 03:04:46;;;;;;;23.92;13.82;;;3.70;99.90;;;;;;4940513;28;20051;-71
2021/11/25 03:07:18;;;;;;;19.45;13.45;;;3.80;99.90;;;;;;4951619;28;20283;-71
2021/11/25 03:09:55;;;;;;;18.90;13.30;;;3.70;99.90;;;;;;4968216;28;20101;-71
2021/11/25 03:12:32;;;;;;;19.17;13.82;;;3.70;99.90;;;;;;4942932;28;20043;-71
2021/11/25 03:15:05;;;;;;;23.05;14.43;;;3.70;99.90;;;;;;4952381;28;20049;-71
2021/11/25 03:17:56;;;;;;;22.80;13.75;;;3.70;99.90;;;;;;4922842;28;20054;-72
2021/11/25 03:20:43;;;;;;;24.73;13.43;;;3.90;99.90;;;;;;4942915;28;20043;-71
2021/11/25 03:23:19;;;;;;;21.83;12.77;;;3.80;99.90;;;;;;4927252;29;20053;-72
2021/11/25 03:25:54;;;;;;;18.58;13.18;;;3.70;99.90;;;;;;4950220;28;20047;-70
2021/11/25 03:28:27;;;;;;;19.63;13.50;;;3.70;99.90;;;;;;4915922;29;20066;-71
2021/11/25 03:31:05;;;;;;;19.25;11.82;;;3.70;99.90;;;;;;4950233;28;20118;-71
2021/11/25 03:33:38;;;;;;;18.27;11.88;;;3.60;99.90;;;;;;4958744;28;20186;-71
2021/11/25 03:36:36;;;;;;;17.92;11.95;;;3.60;99.90;;;;;;4954766;28;20047;-71
2021/11/25 03:39:47;;;;;;;15.77;11.18;;;3.60;99.90;;;;;;4966549;28;20046;-70
2021/11/25 03:42:23;;;;;;;18.70;11.77;;;3.60;99.90;;;;;;4929767;28;20091;-72
2021/11/25 03:44:58;;;;;;;16.10;11.88;;;3.60;99.90;;;;;;4969163;28;20047;-71
2021/11/25 03:50:15;;;;;;;16.65;11.63;;;3.60;99.90;;;;;;4943140;28;20047;-72
2021/11/25 03:52:48;;;;;;;18.58;12.23;;;3.60;99.90;;;;;;4960319;28;20133;-70
2021/11/25 03:55:29;;;;;;;17.98;12.57;;;3.70;99.90;;;;;;4953668;28;20046;-70
2021/11/25 03:58:01;;;;;;;16.20;12.00;;;3.70;99.90;;;;;;4952610;28;20046;-69
2021/11/25 04:00:38;;;;;;;18.73;12.68;;;3.70;99.90;;;;;;4946262;28;20054;-70
2021/11/25 04:03:11;;;;;;;20.65;11.82;;;3.70;99.90;;;;;;4952053;28;20226;-70
2021/11/25 04:05:50;;;;;;;18.88;12.88;;;3.60;99.90;;;;;;4972191;28;20050;-70
2021/11/25 04:08:24;;;;;;;18.63;12.15;;;3.50;99.90;;;;;;4965763;28;20118;-71
2021/11/25 04:11:06;;;;;;;20.40;13.38;;;3.60;99.90;;;;;;4949107;28;20563;-72
2021/11/25 04:13:40;;;;;;;18.15;13.05;;;3.60;99.90;;;;;;4933544;29;20128;-71
2021/11/25 04:16:46;;;;;;;18.58;13.20;;;3.60;99.90;;;;;;4952346;28;20327;-71
2021/11/25 04:19:35;;;;;;;19.38;12.70;;;3.60;99.90;;;;;;4937353;28;20091;-71
2021/11/25 04:22:08;;;;;;;21.30;12.82;;;3.80;99.90;;;;;;4951788;28;20508;-71
2021/11/25 04:24:52;;;;;;;19.35;13.82;;;3.80;99.90;;;;;;4952541;28;20054;-71
2021/11/25 04:27:23;;;;;;;19.48;14.15;;;3.70;99.90;;;;;;4952503;28;20165;-72
2021/11/25 04:35:40;;;;;;;23.23;16.25;;;3.70;99.90;;;;;;4979999;28;20197;-71
2021/11/25 04:38:29;;;;;;;25.27;15.70;;;3.60;99.90;;;;;;4949756;28;20047;-72
2021/11/25 04:41:08;;;;;;;24.20;15.13;;;3.70;99.90;;;;;;4927492;28;20298;-70
2021/11/25 04:43:53;;;;;;;26.65;17.73;;;3.90;99.90;;;;;;4933160;29;20055;-73
2021/11/25 04:46:30;;;;;;;24.67;17.40;;;3.90;99.90;;;;;;4947303;28;20042;-72
2021/11/25 04:49:05;;;;;;;24.83;16.15;;;3.80;99.90;;;;;;4947633;28;20066;-71
2021/11/25 04:51:43;;;;;;;23.70;16.40;;;3.70;99.90;;;;;;4939348;28;20054;-71
2021/11/25 04:54:14;;;;;;;26.10;17.77;;;3.70;99.90;;;;;;4917557;29;20067;-70
2021/11/25 04:56:50;;;;;;;24.35;16.45;;;3.70;99.90;;;;;;4940333;28;20167;-69
2021/11/25 04:59:26;;;;;;;27.35;18.45;;;3.70;99.90;;;;;;4951937;28;20117;-71
2021/11/25 05:02:16;;;;;;;27.77;18.52;;;3.70;99.90;;;;;;4934830;28;20113;-69
2021/11/25 05:04:51;;;;;;;23.88;17.33;;;3.80;99.90;;;;;;4950459;28;20074;-70
2021/11/25 05:08:04;;;;;;;31.27;18.85;;;3.70;99.90;;;;;;4953258;28;20136;-70
2021/11/25 05:10:41;;;;;;;28.58;18.70;;;3.70;99.90;;;;;;4943587;28;20117;-70
2021/11/25 05:13:18;;;;;;;29.02;19.60;;;3.80;99.90;;;;;;4934167;28;20048;-71
2021/11/25 05:16:01;;;;;;;28.42;19.20;;;3.90;99.90;;;;;;4935836;28;20267;-72
2021/11/25 05:18:38;;;;;;;28.52;19.50;;;3.80;99.90;;;;;;4944247;28;20038;-72
2021/11/25 05:21:11;;;;;;;30.02;19.58;;;3.90;99.90;;;;;;4932059;28;20053;-72
2021/11/25 05:23:59;;;;;;;34.70;21.70;;;3.90;99.90;;;;;;4934212;28;20051;-71
2021/11/25 05:26:32;;;;;;;30.58;20.65;;;3.70;99.90;;;;;;4931504;28;20043;-72
2021/11/25 05:29:11;;;;;;;38.45;21.20;;;3.70;99.90;;;;;;4950709;28;20187;-72
2021/11/25 05:31:44;;;;;;;30.10;20.85;;;3.70;99.90;;;;;;4933473;28;20085;-71
2021/11/25 05:34:18;;;;;;;33.55;21.05;;;3.80;99.90;;;;;;4936376;28;20039;-72
2021/11/25 05:36:49;;;;;;;31.60;20.80;;;3.90;99.90;;;;;;4931442;28;20396;-72
2021/11/25 05:39:33;;;;;;;35.22;22.20;;;3.90;99.90;;;;;;4935683;28;20054;-72
2021/11/25 05:42:05;;;;;;;29.40;20.90;;;3.70;99.90;;;;;;4937045;28;20039;-72
2021/11/25 05:44:35;;;;;;;30.90;21.33;;;3.70;99.90;;;;;;4941670;28;20062;-69
2021/11/25 05:47:08;;;;;;;30.05;20.75;;;3.70;99.90;;;;;;4929958;28;20083;-69
2021/11/25 05:49:46;;;;;;;35.95;22.17;;;3.70;99.90;;;;;;4924711;28;20554;-70
2021/11/25 05:52:18;;;;;;;29.58;20.45;;;3.60;99.90;;;;;;4936327;28;20050;-70
2021/11/25 05:54:54;;;;;;;32.22;21.58;;;3.50;99.90;;;;;;4939937;28;20512;-70
2021/11/25 05:57:38;;;;;;;31.42;20.80;;;3.50;99.90;;;;;;4936973;28;20050;-70
2021/11/25 06:00:15;;;;;;;31.65;19.30;;;3.50;99.90;;;;;;4935461;28;20253;-71
2021/11/25 06:02:48;;;;;;;30.08;19.42;;;3.50;99.90;;;;;;4957401;28;20039;-70
2021/11/25 06:05:27;;;;;;;27.65;18.38;;;3.30;99.90;;;;;;4951867;28;20149;-70
2021/11/25 06:08:02;;;;;;;29.67;18.92;;;3.20;99.90;;;;;;4952255;28;20050;-70
2021/11/25 06:10:36;;;;;;;31.73;19.73;;;3.30;99.90;;;;;;4954496;28;20046;-70
2021/11/25 06:13:09;;;;;;;30.92;18.70;;;3.30;99.90;;;;;;4974486;28;20042;-70
2021/11/25 06:15:47;;;;;;;30.20;20.02;;;3.40;99.90;;;;;;4974254;28;20076;-70
2021/11/25 06:18:19;;;;;;;30.48;20.27;;;3.50;99.90;;;;;;4939962;28;20179;-71
2021/11/25 06:20:54;;;;;;;30.48;21.42;;;3.30;99.90;;;;;;4935714;28;20523;-69
2021/11/25 06:23:26;;;;;;;35.15;23.15;;;3.20;99.90;;;;;;4934224;28;20051;-70
2021/11/25 06:26:04;;;;;;;30.63;21.60;;;3.30;99.90;;;;;;4942195;28;20070;-70
2021/11/25 06:28:49;;;;;;;30.33;21.55;;;3.30;99.90;;;;;;4952014;28;20198;-72
2021/11/25 06:31:25;;;;;;;34.33;22.30;;;3.30;99.90;;;;;;4950699;28;20049;-70
2021/11/25 06:33:59;;;;;;;35.83;23.45;;;3.30;99.90;;;;;;4971586;28;20047;-70
2021/11/25 06:36:34;;;;;;;34.72;22.23;;;3.30;99.90;;;;;;4954133;28;20158;-70
2021/11/25 06:39:09;;;;;;;32.35;21.45;;;3.30;99.90;;;;;;4957484;28;20038;-70
2021/11/25 06:41:43;;;;;;;;;;;3.30;99.90;;;;;;4948299;28;20090;-70
2021/11/25 06:44:20;;;;;;;34.83;21.98;;;3.40;99.90;;;;;;4947220;28;19922;-69
2021/11/25 06:46:55;;;;;;;34.00;22.95;;;3.50;99.90;;;;;;4959499;28;20058;-70
2021/11/25 06:49:37;;;;;;;29.60;19.27;;;3.40;99.90;;;;;;4957471;28;20140;-71
2021/11/25 06:52:09;;;;;;;;;;;3.50;99.90;;;;;;4952290;28;20062;-71
2021/11/25 06:54:44;;;;;;;32.30;19.60;;;3.20;99.90;;;;;;4939793;28;19981;-70
2021/11/25 06:57:25;;;;;;;39.75;25.42;;;3.20;99.90;;;;;;4949439;28;20048;-70
2021/11/25 07:00:09;;;;;;;38.85;24.77;;;3.20;99.90;;;;;;4955609;28;20129;-70
2021/11/25 07:02:43;;;;;;;37.22;23.70;;;3.20;99.90;;;;;;4955189;28;20047;-69
2021/11/25 07:05:16;;;;;;;39.30;23.73;;;3.20;99.90;;;;;;4985438;28;20050;-70
2021/11/25 07:07:56;;;;;;;34.13;22.52;;;3.20;99.90;;;;;;4949661;28;20125;-70
2021/11/25 07:10:39;;;;;;;35.30;23.45;;;3.20;99.90;;;;;;4949363;28;20142;-70
2021/11/25 07:13:15;;;;;;;35.03;24.15;;;3.30;99.90;;;;;;4953748;28;20393;-70
2021/11/25 07:15:47;;;;;;;40.10;24.33;;;3.40;99.90;;;;;;4951520;28;20110;-72
2021/11/25 07:18:24;;;;;;;39.45;23.70;;;3.30;99.90;;;;;;4952806;28;20138;-71
2021/11/25 07:21:02;;;;;;;35.15;23.92;;;3.30;99.90;;;;;;4946356;28;20047;-70
2021/11/25 07:23:34;;;;;;;36.67;24.50;;;3.30;99.90;;;;;;4954314;28;20254;-69
2021/11/25 07:26:07;;;;;;;36.03;23.15;;;3.40;99.90;;;;;;4935804;28;20055;-70
2021/11/25 07:28:41;;;;;;;35.95;23.60;;;3.40;99.90;;;;;;4950982;28;20133;-71
2021/11/25 07:31:16;;;;;;;36.38;23.80;;;3.50;99.90;;;;;;4934077;28;20039;-70
2021/11/25 07:33:51;;;;;;;34.78;22.05;;;3.40;99.90;;;;;;4936212;28;20274;-71
2021/11/25 07:36:24;;;;;;;37.25;24.80;;;3.40;99.90;;;;;;4931749;28;20057;-71
2021/11/25 07:38:53;;;;;;;38.75;26.17;;;3.30;99.90;;;;;;4950624;28;20077;-71
2021/11/25 07:41:23;;;;;;;38.88;25.58;;;3.20;99.90;;;;;;4943294;28;20050;-71
2021/11/25 07:43:54;;;;;;;40.08;25.63;;;3.20;99.90;;;;;;4953306;28;20051;-71
2021/11/25 07:46:31;;;;;;;42.70;28.30;;;3.10;99.90;;;;;;4951463;28;20047;-71
2021/11/25 07:49:05;;;;;;;44.10;27.85;;;3.00;99.90;;;;;;4979587;28;20078;-71
2021/11/25 07:51:43;;;;;;;47.30;28.95;;;3.00;99.90;;;;;;4939586;28;20064;-71
2021/11/25 07:54:15;;;;;;;44.33;27.95;;;2.80;99.90;;;;;;4936037;29;20566;-70
2021/11/25 07:57:00;;;;;;;47.63;28.67;;;2.80;99.90;;;;;;4945681;28;20106;-74
2021/11/25 07:59:52;;;;;;;49.47;28.40;;;2.80;99.90;;;;;;4956431;28;20303;-72
2021/11/25 08:02:27;;;;;;;55.30;30.08;;;2.80;99.90;;;;;;4930649;29;20102;-71
2021/11/25 08:05:06;;;;;;;52.88;31.83;;;2.80;99.90;;;;;;4937349;29;20074;-72
2021/11/25 08:07:40;;;;;;;53.17;32.03;;;2.70;99.90;;;;;;4945276;28;20411;-71
2021/11/25 08:10:17;;;;;;;52.15;30.98;;;2.60;99.90;;;;;;4939525;28;20058;-71
2021/11/25 08:12:50;;;;;;;51.10;31.52;;;2.70;99.90;;;;;;4956976;28;20137;-73
2021/11/25 08:18:13;;;;;;;53.63;30.30;;;2.80;99.90;;;;;;4970029;28;20047;-71
2021/11/25 08:20:51;;;;;;;54.97;32.65;;;2.80;99.90;;;;;;4949290;28;20043;-71
2021/11/25 08:23:23;;;;;;;55.00;31.50;;;2.90;99.90;;;;;;4953999;28;20043;-71
2021/11/25 08:25:56;;;;;;;51.13;32.05;;;3.00;99.90;;;;;;4952414;28;20043;-70
2021/11/25 08:31:17;;;;;;;47.55;29.52;;;3.10;99.90;;;;;;4961411;28;20475;-69
2021/11/25 08:33:50;;;;;;;44.25;28.65;;;3.10;99.90;;;;;;4952925;28;20120;-69
2021/11/25 08:36:25;;;;;;;46.33;31.10;;;3.30;99.90;;;;;;4948419;28;20038;-71
2021/11/25 08:39:07;;;;;;;39.33;26.02;;;3.40;99.90;;;;;;4951247;28;20054;-69
2021/11/25 08:41:45;;;;;;;38.03;25.02;;;3.40;99.90;;;;;;4946018;28;20042;-73
2021/11/25 08:44:16;;;;;;;35.97;24.50;;;3.60;99.90;;;;;;4953156;28;20070;-68
2021/11/25 08:46:51;;;;;;;36.70;23.52;;;3.70;99.90;;;;;;4951053;28;20053;-69
2021/11/25 08:49:29;;;;;;;35.72;24.88;;;3.80;99.90;;;;;;4950787;28;20303;-70
2021/11/25 08:52:05;;;;;;;38.17;24.27;;;3.90;99.90;;;;;;4951978;28;20043;-70
2021/11/25 08:54:39;;;;;;;37.42;24.05;;;3.80;99.90;;;;;;4955542;28;20493;-71
2021/11/25 08:57:13;;;;;;;35.65;24.10;;;3.80;99.90;;;;;;4952069;28;20287;-71
2021/11/25 08:59:59;;;;;;;34.85;22.08;;;3.80;99.90;;;;;;4958242;28;20318;-71
2021/11/25 09:02:37;;;;;;;33.03;21.50;;;3.80;99.90;;;;;;4935932;28;20062;-69
2021/11/25 09:05:12;;;;;;;32.15;21.77;;;3.70;99.90;;;;;;4945748;28;20058;-70
2021/11/25 09:07:52;;;;;;;34.22;21.50;;;3.70;99.90;;;;;;4971534;28;20047;-69
2021/11/25 09:10:33;;;;;;;34.17;22.38;;;3.70;99.90;;;;;;4952972;28;20045;-70
2021/11/25 09:13:09;;;;;;;31.02;21.27;;;3.60;99.90;;;;;;4951401;28;20050;-70
2021/11/25 09:15:50;;;;;;;33.90;21.48;;;3.60;99.90;;;;;;4954273;28;20495;-70
2021/11/25 09:18:36;;;;;;;38.40;22.13;;;3.60;99.90;;;;;;4952514;28;20051;-70
2021/11/25 09:21:22;;;;;;;33.17;22.08;;;3.60;99.90;;;;;;4950126;28;20055;-70
2021/11/25 09:24:06;;;;;;;33.97;22.08;;;3.70;99.90;;;;;;4937919;28;20047;-70
2021/11/25 09:26:37;;;;;;;31.50;21.88;;;3.70;99.90;;;;;;4947765;28;20050;-70
2021/11/25 09:29:14;;;;;;;32.47;22.45;;;3.70;99.90;;;;;;4936583;28;20518;-69
2021/11/25 09:31:58;;;;;;;36.47;22.90;;;3.80;99.90;;;;;;4937146;28;20046;-71
2021/11/25 09:34:34;;;;;;;42.47;25.35;;;3.70;99.90;;;;;;4967502;28;20039;-71
2021/11/25 09:37:20;;;;;;;35.97;24.85;;;3.70;99.90;;;;;;4941500;28;20055;-70
2021/11/25 09:39:56;;;;;;;39.35;26.35;;;3.60;99.90;;;;;;4960383;28;20247;-70
2021/11/25 09:42:35;;;;;;;38.42;26.70;;;3.50;99.90;;;;;;4939986;28;20244;-73
2021/11/25 09:45:10;;;;;;;36.92;25.70;;;3.60;99.90;;;;;;4982149;28;20062;-69
2021/11/25 09:47:44;;;;;;;33.92;24.45;;;3.80;99.90;;;;;;4972769;28;20290;-71
2021/11/25 09:50:19;;;;;;;35.05;24.15;;;4.00;99.90;;;;;;4934976;28;20166;-70
2021/11/25 09:55:56;;;;;;;34.10;24.40;;;4.50;99.90;;;;;;4979796;28;20085;-72
2021/11/25 09:58:39;;;;;;;30.70;22.88;;;4.50;99.90;;;;;;4950774;28;20247;-72
2021/11/25 10:01:25;;;;;;;33.60;23.92;;;4.50;99.90;;;;;;4943137;28;20291;-71
2021/11/25 10:03:59;;;;;;;33.92;25.67;;;4.50;99.90;;;;;;4967335;28;20485;-71
2021/11/25 10:06:48;;;;;;;29.40;22.67;;;4.50;99.90;;;;;;4971063;28;20047;-71
2021/11/25 10:09:44;;;;;;;34.40;22.92;;;4.40;99.90;;;;;;4961642;28;20126;-71
2021/11/25 10:13:02;;;;;;;30.63;22.48;;;4.70;99.90;;;;;;4932283;28;20237;-71
2021/11/25 10:15:44;;;;;;;35.92;24.98;;;4.80;99.90;;;;;;4913267;29;20077;-71
2021/11/25 10:18:17;;;;;;;34.53;24.65;;;4.70;99.90;;;;;;4948577;28;20097;-72
2021/11/25 10:20:48;;;;;;;34.03;23.75;;;4.60;99.90;;;;;;4942094;28;20054;-71
2021/11/25 10:23:23;;;;;;;35.30;24.90;;;4.50;99.90;;;;;;4952352;28;20054;-71
2021/11/25 10:26:05;;;;;;;33.08;24.45;;;4.30;99.90;;;;;;4951106;28;20236;-72
2021/11/25 10:28:51;;;;;;;38.80;26.52;;;4.10;99.90;;;;;;4941577;28;20067;-71
2021/11/25 10:31:30;;;;;;;38.80;25.70;;;4.10;99.90;;;;;;4957710;28;20047;-69
2021/11/25 10:34:13;;;;;;;37.72;25.65;;;4.20;99.90;;;;;;4944306;28;20070;-71
2021/11/25 10:40:30;;;;;;;40.60;27.77;;;4.40;99.90;;;;;;4935695;28;20147;-71
2021/11/25 10:43:19;;;;;;;38.15;26.23;;;4.30;99.90;;;;;;4918678;29;20100;-69
2021/11/25 10:45:54;;;;;;;35.83;24.38;;;4.40;99.90;;;;;;4958262;28;20051;-72
2021/11/25 10:48:26;;;;;;;36.55;25.58;;;4.40;99.90;;;;;;4965950;28;20051;-71
2021/11/25 10:51:24;;;;;;;32.72;24.20;;;4.40;99.90;;;;;;4948457;28;20046;-70
2021/11/25 10:54:14;;;;;;;32.72;22.80;;;4.30;99.90;;;;;;4946752;28;20212;-72
2021/11/25 10:56:58;;;;;;;39.17;25.13;;;4.20;99.90;;;;;;4948787;28;20202;-70
2021/11/25 11:00:24;;;;;;;33.03;25.10;;;4.00;99.90;;;;;;4975235;28;20109;-69
2021/11/25 11:03:29;;;;;;;37.92;26.27;;;4.10;99.90;;;;;;4953672;28;20047;-71
2021/11/25 11:06:05;;;;;;;37.05;25.52;;;4.10;99.90;;;;;;4949915;28;20047;-70
2021/11/25 11:08:49;;;;;;;37.13;25.35;;;4.20;99.90;;;;;;4950381;28;20082;-69
2021/11/25 11:12:27;;;;;;;35.63;25.90;;;4.20;99.90;;;;;;4902329;29;20059;-69
2021/11/25 11:21:35;;;;;;;36.83;24.50;;;4.10;99.90;;;;;;4973581;28;20107;-72
2021/11/25 11:24:35;;;;;;;35.95;25.55;;;4.00;99.90;;;;;;4975572;28;20108;-70
2021/11/25 11:27:07;;;;;;;36.33;26.02;;;4.10;99.90;;;;;;4963878;28;20115;-71
2021/11/25 11:29:45;;;;;;;38.22;26.20;;;4.00;99.90;;;;;;4950898;28;20307;-72
2021/11/25 11:32:20;;;;;;;37.72;25.10;;;4.10;99.90;;;;;;4941064;28;20232;-70
2021/11/25 11:34:53;;;;;;;32.10;21.65;;;4.00;99.90;;;;;;4948260;28;20178;-71
2021/11/25 11:37:27;;;;;;;;;;;3.90;99.90;;;;;;4939079;28;20051;-70
2021/11/25 11:40:09;;;;;;;36.25;24.73;;;3.80;99.90;;;;;;4947560;28;19929;-70
2021/11/25 11:42:59;;;;;;;36.38;24.33;;;3.80;99.90;;;;;;4981557;28;20042;-70
2021/11/25 11:45:38;;;;;;;40.35;27.20;;;3.90;99.90;;;;;;4951148;28;20209;-70
2021/11/25 11:48:19;;;;;;;35.13;25.17;;;3.90;99.90;;;;;;4946374;28;20211;-70
2021/11/25 11:50:57;;;;;;;37.55;26.63;;;3.90;99.90;;;;;;4974823;28;20051;-69
2021/11/25 11:53:46;;;;;;;39.55;25.77;;;3.80;99.90;;;;;;4964239;28;20189;-71
2021/11/25 11:56:32;;;;;;;36.83;24.40;;;3.80;99.90;;;;;;4963001;28;20057;-73
2021/11/25 11:59:05;;;;;;;;;;;3.80;99.90;;;;;;4965903;28;20098;-70
2021/11/25 12:01:38;;;;;;;39.40;26.35;;;3.70;99.90;;;;;;4962398;28;20461;-69
2021/11/25 12:04:20;;;;;;;36.42;25.65;;;3.90;99.90;;;;;;4968882;28;20043;-71
2021/11/25 12:06:52;;;;;;;40.25;26.17;;;4.00;99.90;;;;;;4947087;28;20055;-71
2021/11/25 12:09:23;;;;;;;34.10;24.67;;;3.90;99.90;;;;;;4947831;28;20472;-68
2021/11/25 12:12:23;;;;;;;32.28;22.85;;;3.90;99.90;;;;;;4959009;28;20589;-70
2021/11/25 12:15:03;;;;;;;41.20;27.85;;;3.80;99.90;;;;;;4945100;28;20105;-69
2021/11/25 12:17:37;;;;;;;40.00;26.92;;;3.80;99.90;;;;;;4944555;28;20047;-69
2021/11/25 12:20:24;;;;;;;38.28;26.98;;;3.90;99.90;;;;;;4948883;28;20050;-69
2021/11/25 12:22:58;;;;;;;38.35;26.55;;;3.90;99.90;;;;;;4948751;28;20051;-70
2021/11/25 12:25:40;;;;;;;43.58;28.23;;;3.80;99.90;;;;;;4947651;28;20046;-70
2021/11/25 12:28:27;;;;;;;41.95;28.25;;;3.80;99.90;;;;;;4928902;28;20046;-68
2021/11/25 12:31:34;;;;;;;42.33;29.70;;;3.70;99.90;;;;;;4928454;28;20047;-66
2021/11/25 12:34:31;;;;;;;;;;;3.80;99.90;;;;;;4943557;28;20039;-68
2021/11/25 12:36:58;;;;;;;40.35;27.23;;;3.90;99.90;;;;;;4957004;28;19980;-68
2021/11/25 12:39:38;;;;;;;37.90;26.20;;;4.00;99.90;;;;;;4927831;28;20678;-68
2021/11/25 12:42:05;;;;;;;33.05;23.50;;;4.10;99.90;;;;;;4944584;28;20057;-67
2021/11/25 12:44:40;;;;;;;40.00;25.75;;;4.00;99.90;;;;;;4927378;28;20409;-69
2021/11/25 12:47:16;;;;;;;38.78;25.23;;;4.00;99.90;;;;;;4944115;28;20145;-69
2021/11/25 12:49:43;;;;;;;39.63;25.85;;;4.00;99.90;;;;;;4961118;28;20489;-70
2021/11/25 12:52:27;;;;;;;36.70;23.95;;;4.00;99.90;;;;;;4960438;28;20511;-69
2021/11/25 12:55:10;;;;;;;36.40;24.58;;;4.00;99.90;;;;;;4963510;28;20057;-69
2021/11/25 12:57:55;;;;;;;35.10;23.95;;;4.00;99.90;;;;;;4942489;29;20508;-67
2021/11/25 13:00:30;;;;;;;36.03;25.00;;;4.00;99.90;;;;;;4911734;28;20047;-69
2021/11/25 13:03:17;;;;;;;31.13;23.52;;;4.00;99.90;;;;;;4945525;28;20054;-68
2021/11/25 13:05:46;;;;;;;33.72;22.52;;;3.90;99.90;;;;;;4958766;28;20046;-70
2021/11/25 13:08:24;;;;;;;33.08;22.02;;;4.00;99.90;;;;;;4966581;28;20042;-67
2021/11/25 13:10:51;;;;;;;38.45;23.48;;;4.00;99.90;;;;;;4927708;29;20055;-70
2021/11/25 13:13:21;;;;;;;34.55;22.88;;;4.00;99.90;;;;;;4909997;29;20527;-69
2021/11/25 13:16:06;;;;;;;37.35;23.92;;;4.00;99.90;;;;;;4941229;28;20187;-70
2021/11/25 13:18:44;;;;;;;35.70;23.75;;;4.00;99.90;;;;;;4935733;28;20110;-67
2021/11/25 13:21:38;;;;;;;42.92;26.48;;;4.10;99.90;;;;;;4957396;28;20077;-70
2021/11/25 13:24:16;;;;;;;41.28;25.17;;;4.20;99.90;;;;;;4936059;29;20073;-66
2021/11/25 13:27:03;;;;;;;37.22;24.98;;;4.20;99.90;;;;;;4935238;29;20071;-70
2021/11/25 13:30:00;;;;;;;41.35;26.58;;;4.20;99.90;;;;;;4938158;28;20058;-67
2021/11/25 13:32:35;;;;;;;39.65;26.67;;;4.10;99.90;;;;;;4958463;28;20685;-66
2021/11/25 13:35:09;;;;;;;43.45;25.75;;;4.00;99.90;;;;;;4960503;28;20059;-66
2021/11/25 13:37:40;;;;;;;41.95;27.67;;;4.00;99.90;;;;;;4957587;28;20069;-68
2021/11/25 13:40:10;;;;;;;42.80;26.55;;;3.80;99.90;;;;;;4941175;28;20047;-69
2021/11/25 13:42:43;;;;;;;45.00;27.63;;;3.70;99.90;;;;;;4955621;28;20672;-68
2021/11/25 13:45:22;;;;;;;44.60;27.63;;;3.80;99.90;;;;;;4959076;28;20046;-66
2021/11/25 13:47:52;;;;;;;48.60;28.90;;;3.80;99.90;;;;;;4961210;28;20051;-68
2021/11/25 13:50:22;;;;;;;49.65;31.05;;;3.70;99.90;;;;;;4957063;28;20093;-68
2021/11/25 13:52:52;;;;;;;54.38;31.67;;;3.70;99.90;;;;;;4961431;28;20681;-69
2021/11/25 13:55:23;;;;;;;52.10;29.92;;;3.60;99.90;;;;;;4958842;28;20050;-67
2021/11/25 13:57:51;;;;;;;50.35;30.52;;;3.60;99.90;;;;;;4942156;28;20109;-69
2021/11/25 14:00:34;;;;;;;49.83;31.13;;;3.60;99.90;;;;;;4960536;28;20047;-68
2021/11/25 14:03:10;;;;;;;50.90;31.77;;;3.70;99.90;;;;;;4964474;28;20055;-66
2021/11/25 14:05:48;;;;;;;56.08;32.53;;;3.70;99.90;;;;;;4961757;28;20047;-70
2021/11/25 14:08:16;;;;;;;53.92;32.50;;;3.70;99.90;;;;;;4959007;28;20081;-69
2021/11/25 14:10:48;;;;;;;52.88;33.08;;;3.70;99.90;;;;;;4963370;28;20103;-70